createdAt,value
2018-04-27T00:00:24.569Z,96.20
2018-04-27T00:02:52.105Z,96.40
2018-04-27T00:05:20.456Z,96.10
2018-04-27T00:07:48.004Z,96.10
2018-04-27T00:10:15.560Z,96.10
2018-04-27T00:12:43.109Z,96.30
2018-04-27T00:15:11.479Z,96.50
2018-04-27T00:17:38.978Z,96.50
2018-04-27T00:20:07.443Z,96.40
2018-04-27T00:22:34.983Z,96.40
2018-04-27T00:25:02.521Z,96.50
2018-04-27T00:27:30.066Z,96.70
2018-04-27T00:29:57.618Z,96.80
2018-04-27T00:32:25.156Z,96.90
2018-04-27T00:34:53.422Z,96.80
2018-04-27T00:37:20.952Z,96.80
2018-04-27T00:39:49.292Z,96.70
2018-04-27T00:42:16.785Z,96.70
2018-04-27T00:44:45.096Z,96.80
2018-04-27T00:47:12.598Z,96.70
2018-04-27T00:49:40.146Z,96.80
2018-04-27T00:52:07.678Z,96.90
2018-04-27T00:54:35.997Z,96.80
2018-04-27T00:57:03.532Z,96.80
2018-04-27T00:59:31.086Z,97.00
2018-04-27T01:01:58.580Z,96.80
2018-04-27T01:04:26.085Z,96.60
2018-04-27T01:06:54.349Z,97.20
2018-04-27T01:09:21.897Z,97.20
2018-04-27T01:11:49.441Z,97.30
2018-04-27T01:14:16.987Z,97.10
2018-04-27T01:16:44.529Z,97.20
2018-04-27T01:19:12.034Z,97.30
2018-04-27T01:21:39.533Z,97.40
2018-04-27T01:24:07.077Z,97.40
2018-04-27T01:26:35.380Z,97.70
2018-04-27T01:29:02.883Z,97.70
2018-04-27T01:31:30.415Z,97.70
2018-04-27T01:33:57.949Z,97.80
2018-04-27T01:36:25.492Z,97.80
2018-04-27T01:38:53.790Z,96.90
2018-04-27T01:41:21.304Z,96.80
2018-04-27T01:43:48.829Z,96.80
2018-04-27T01:46:16.377Z,96.90
2018-04-27T01:48:43.913Z,96.80
2018-04-27T01:51:11.416Z,96.80
2018-04-27T01:53:38.945Z,97.00
2018-04-27T01:56:06.498Z,97.10
2018-04-27T01:58:34.033Z,97.40
2018-04-27T02:01:02.345Z,97.80
2018-04-27T02:03:29.835Z,97.80
2018-04-27T02:05:57.349Z,97.90
2018-04-27T02:08:24.888Z,97.90
2018-04-27T02:10:53.203Z,97.80
2018-04-27T02:13:20.696Z,97.80
2018-04-27T02:15:48.203Z,97.70
2018-04-27T02:18:15.702Z,97.50
2018-04-27T02:20:43.167Z,97.70
2018-04-27T02:23:10.639Z,97.80
2018-04-27T02:25:38.926Z,98.10
2018-04-27T02:28:07.149Z,97.90
2018-04-27T02:30:35.394Z,98.00
2018-04-27T02:33:02.946Z,98.00
2018-04-27T02:35:30.391Z,98.00
2018-04-27T02:37:58.626Z,97.80
2018-04-27T02:40:26.107Z,98.10
2018-04-27T02:42:54.338Z,98.00
2018-04-27T02:45:21.846Z,97.90
2018-04-27T02:47:50.103Z,98.00
2018-04-27T02:50:17.624Z,97.90
2018-04-27T02:52:45.082Z,98.10
2018-04-27T02:55:12.611Z,98.00
2018-04-27T02:57:40.113Z,97.70
2018-04-27T03:00:07.587Z,97.60
2018-04-27T03:02:35.064Z,97.60
2018-04-27T03:05:03.302Z,97.80
2018-04-27T03:07:30.796Z,97.70
2018-04-27T03:09:59.028Z,97.70
2018-04-27T03:12:26.507Z,97.60
2018-04-27T03:14:54.009Z,97.70
2018-04-27T03:17:21.530Z,97.90
2018-04-27T03:19:48.993Z,97.90
2018-04-27T03:22:17.238Z,97.90
2018-04-27T03:24:44.799Z,97.80
2018-04-27T03:27:12.311Z,98.00
2018-04-27T03:29:39.812Z,98.20
2018-04-27T03:32:07.322Z,98.60
2018-04-27T03:34:34.810Z,98.30
2018-04-27T03:37:02.286Z,98.30
2018-04-27T03:39:29.790Z,98.30
2018-04-27T03:41:58.068Z,98.30
2018-04-27T03:44:25.574Z,98.20
2018-04-27T03:46:53.083Z,98.30
2018-04-27T03:49:20.580Z,98.40
2018-04-27T03:51:48.127Z,98.30
2018-04-27T03:54:15.632Z,98.30
2018-04-27T03:56:43.136Z,98.30
2018-04-27T03:59:10.594Z,98.30
2018-04-27T04:01:50.027Z,98.20
2018-04-27T04:04:29.365Z,98.10
2018-04-27T04:06:56.846Z,98.00
2018-04-27T04:09:24.352Z,98.00
2018-04-27T04:11:52.622Z,98.00
2018-04-27T04:14:20.850Z,98.00
2018-04-27T04:16:48.352Z,97.90
2018-04-27T04:19:16.592Z,97.80
2018-04-27T04:21:44.109Z,97.80
2018-04-27T04:24:11.640Z,97.80
2018-04-27T04:26:39.870Z,97.80
2018-04-27T04:29:07.331Z,97.70
2018-04-27T04:31:34.802Z,97.70
2018-04-27T04:34:02.267Z,97.60
2018-04-27T04:36:29.780Z,97.50
2018-04-27T04:38:57.233Z,97.30
2018-04-27T04:41:24.707Z,96.90
2018-04-27T04:43:52.264Z,96.80
2018-04-27T04:46:19.725Z,96.80
2018-04-27T04:48:47.241Z,96.50
2018-04-27T04:51:15.467Z,96.10
2018-04-27T04:53:42.976Z,96.10
2018-04-27T04:56:11.239Z,95.90
2018-04-27T04:58:39.512Z,95.90
2018-04-27T05:01:07.730Z,96.00
2018-04-27T05:03:35.245Z,95.60
2018-04-27T05:06:03.471Z,95.10
2018-04-27T05:08:30.992Z,95.10
2018-04-27T05:10:59.216Z,93.80
2018-04-27T05:13:26.731Z,93.80
2018-04-27T05:15:54.224Z,93.70
2018-04-27T05:21:40.340Z,90.30
2018-04-27T05:24:07.863Z,90.40
2018-04-27T05:26:35.346Z,90.00
2018-04-27T05:29:02.862Z,86.10
2018-04-27T05:31:31.133Z,80.70
2018-04-27T05:33:59.405Z,79.00
2018-04-27T05:36:26.913Z,79.00
2018-04-27T05:38:54.401Z,80.00
2018-04-27T05:41:21.877Z,75.30
2018-04-27T05:43:50.172Z,66.00
2018-04-27T05:46:18.447Z,62.70
2018-04-27T05:48:46.701Z,63.10
2018-04-27T05:51:15.001Z,63.40
2018-04-27T05:53:42.512Z,63.40
2018-04-27T05:56:10.037Z,67.50
2018-04-27T05:58:37.553Z,67.20
2018-04-27T06:01:05.815Z,64.10
2018-04-27T06:03:45.209Z,64.00
2018-04-27T06:06:12.749Z,64.20
2018-04-27T06:08:40.309Z,65.00
2018-04-27T06:11:07.848Z,69.20
2018-04-27T06:13:36.152Z,70.40
2018-04-27T06:16:03.693Z,70.40
2018-04-27T06:18:32.019Z,72.20
2018-04-27T06:20:59.561Z,72.20
2018-04-27T06:23:27.035Z,76.00
2018-04-27T06:25:55.279Z,79.70
2018-04-27T06:28:22.774Z,79.70
2018-04-27T06:30:50.293Z,78.40
2018-04-27T06:33:17.824Z,78.10
2018-04-27T06:35:46.055Z,77.20
2018-04-27T06:38:13.574Z,77.10
2018-04-27T06:40:41.114Z,73.40
2018-04-27T06:43:09.394Z,75.40
2018-04-27T06:45:37.652Z,75.90
2018-04-27T06:48:05.152Z,75.80
2018-04-27T06:50:32.637Z,75.20
2018-04-27T06:53:00.162Z,75.30
2018-04-27T06:55:27.647Z,75.50
2018-04-27T06:57:55.149Z,74.90
2018-04-27T07:00:23.452Z,74.50
2018-04-27T07:02:50.982Z,74.40
2018-04-27T07:05:19.328Z,70.90
2018-04-27T07:07:46.802Z,70.80
2018-04-27T07:10:14.277Z,68.40
2018-04-27T07:12:42.534Z,65.20
2018-04-27T07:15:10.092Z,65.00
2018-04-27T07:17:37.624Z,66.30
2018-04-27T07:20:05.110Z,59.60
2018-04-27T07:22:32.644Z,56.50
2018-04-27T07:25:00.132Z,60.00
2018-04-27T07:27:27.599Z,55.30
2018-04-27T07:29:55.879Z,51.20
2018-04-27T07:32:23.354Z,51.10
2018-04-27T07:34:50.846Z,50.80
2018-04-27T07:37:18.351Z,47.20
2018-04-27T07:39:46.637Z,44.10
2018-04-27T07:42:14.870Z,44.20
2018-04-27T07:44:42.400Z,44.10
2018-04-27T07:47:09.878Z,44.00
2018-04-27T07:49:37.367Z,44.90
2018-04-27T07:52:05.613Z,45.70
2018-04-27T07:54:33.151Z,45.40
2018-04-27T07:57:00.673Z,46.70
2018-04-27T07:59:28.974Z,45.60
2018-04-27T08:01:56.460Z,45.60
2018-04-27T08:04:23.948Z,42.90
2018-04-27T08:06:51.443Z,46.00
2018-04-27T08:09:18.951Z,41.00
2018-04-27T08:11:46.488Z,44.40
2018-04-27T08:14:14.735Z,45.60
2018-04-27T08:16:42.247Z,45.10
2018-04-27T08:19:09.760Z,43.10
2018-04-27T08:21:37.309Z,42.60
2018-04-27T08:24:04.874Z,40.00
2018-04-27T08:26:32.420Z,41.40
2018-04-27T08:29:01.750Z,45.00
2018-04-27T08:31:29.269Z,39.00
2018-04-27T08:33:56.741Z,37.10
2018-04-27T08:36:24.287Z,38.60
2018-04-27T08:38:51.803Z,35.70
2018-04-27T08:41:19.305Z,38.70
2018-04-27T08:43:46.785Z,35.20
2018-04-27T08:46:14.284Z,40.50
2018-04-27T08:48:41.771Z,37.20
2018-04-27T08:51:09.296Z,35.30
2018-04-27T08:53:36.805Z,34.90
2018-04-27T08:56:04.307Z,34.00
2018-04-27T08:58:31.839Z,38.00
2018-04-27T09:00:59.338Z,43.00
2018-04-27T09:03:27.591Z,39.20
2018-04-27T09:05:55.107Z,39.20
2018-04-27T09:08:22.567Z,41.30
2018-04-27T09:10:50.088Z,40.90
2018-04-27T09:13:17.609Z,40.80
2018-04-27T09:15:45.140Z,41.90
2018-04-27T09:18:12.652Z,42.10
2018-04-27T09:20:40.176Z,41.70
2018-04-27T09:23:07.677Z,44.60
2018-04-27T09:25:35.142Z,48.30
2018-04-27T09:28:03.428Z,46.10
2018-04-27T09:30:31.667Z,45.30
2018-04-27T09:32:59.183Z,45.30
2018-04-27T09:35:26.647Z,40.30
2018-04-27T09:37:54.135Z,43.00
2018-04-27T09:40:21.639Z,42.80
2018-04-27T09:42:49.139Z,43.40
2018-04-27T09:45:16.606Z,40.30
2018-04-27T09:47:44.146Z,42.90
2018-04-27T09:50:11.656Z,42.30
2018-04-27T09:52:39.936Z,41.80
2018-04-27T09:55:08.169Z,42.20
2018-04-27T09:57:36.411Z,43.30
2018-04-27T10:00:03.917Z,43.30
2018-04-27T10:02:31.415Z,39.60
2018-04-27T10:04:58.931Z,36.00
2018-04-27T10:07:26.416Z,40.50
2018-04-27T10:09:54.642Z,38.90
2018-04-27T10:12:22.234Z,38.80
2018-04-27T10:14:49.787Z,39.00
2018-04-27T10:17:17.296Z,42.30
2018-04-27T10:19:44.763Z,40.50
2018-04-27T10:22:12.275Z,37.70
2018-04-27T10:24:40.547Z,43.50
2018-04-27T10:27:08.833Z,45.30
2018-04-27T10:29:37.088Z,41.60
2018-04-27T10:32:04.653Z,41.50
2018-04-27T10:34:32.935Z,45.20
2018-04-27T10:37:01.236Z,45.50
2018-04-27T10:39:28.710Z,45.30
2018-04-27T10:41:56.206Z,45.60
2018-04-27T10:44:23.674Z,43.00
2018-04-27T10:46:51.959Z,41.30
2018-04-27T10:49:20.263Z,45.40
2018-04-27T10:51:47.757Z,45.30
2018-04-27T10:54:15.682Z,40.60
2018-04-27T10:56:43.303Z,45.20
2018-04-27T10:59:10.818Z,40.90
2018-04-27T11:01:38.274Z,42.70
2018-04-27T11:04:05.802Z,42.00
2018-04-27T11:06:33.268Z,42.90
2018-04-27T11:09:00.797Z,42.50
2018-04-27T11:11:28.295Z,44.10
2018-04-27T11:13:55.915Z,44.40
2018-04-27T11:16:23.399Z,46.10
2018-04-27T11:18:50.909Z,45.60
2018-04-27T11:21:18.386Z,47.80
2018-04-27T11:23:45.897Z,45.10
2018-04-27T11:26:13.350Z,48.20
2018-04-27T11:28:40.901Z,48.30
2018-04-27T11:31:08.412Z,44.70
2018-04-27T11:33:35.930Z,46.50
2018-04-27T11:36:03.461Z,48.30
2018-04-27T11:38:31.769Z,43.00
2018-04-27T11:40:59.271Z,43.00
2018-04-27T11:43:26.868Z,46.80
2018-04-27T11:45:54.342Z,44.30
2018-04-27T11:48:21.879Z,45.50
2018-04-27T11:50:49.517Z,46.10
2018-04-27T11:53:18.731Z,45.30
2018-04-27T11:55:46.292Z,45.30
2018-04-27T11:58:13.783Z,46.20
2018-04-27T12:00:41.292Z,47.10
2018-04-27T12:03:09.572Z,46.70
2018-04-27T12:05:37.806Z,46.40
2018-04-27T12:08:05.295Z,46.40
2018-04-27T12:10:33.546Z,47.90
2018-04-27T12:13:01.039Z,47.90
2018-04-27T12:15:29.284Z,46.60
2018-04-27T12:17:56.795Z,46.40
2018-04-27T12:20:24.262Z,47.60
2018-04-27T12:22:51.779Z,49.90
2018-04-27T12:25:20.057Z,46.70
2018-04-27T12:27:48.328Z,45.00
2018-04-27T12:30:16.618Z,47.00
2018-04-27T12:32:44.314Z,47.00
2018-04-27T12:35:11.789Z,45.80
2018-04-27T12:37:39.296Z,46.40
2018-04-27T12:40:07.576Z,49.90
2018-04-27T12:42:35.074Z,49.80
2018-04-27T12:45:02.684Z,47.80
2018-04-27T12:47:30.121Z,45.40
2018-04-27T12:49:57.610Z,48.30
2018-04-27T12:52:25.093Z,44.50
2018-04-27T12:54:52.608Z,46.50
2018-04-27T12:57:20.863Z,47.10
2018-04-27T12:59:48.350Z,47.10
2018-04-27T13:02:16.585Z,47.00
2018-04-27T13:04:44.122Z,46.90
2018-04-27T13:07:11.624Z,46.70
2018-04-27T13:09:39.907Z,46.80
2018-04-27T13:12:08.138Z,44.50
2018-04-27T13:14:35.619Z,44.50
2018-04-27T13:17:03.128Z,47.20
2018-04-27T13:19:30.633Z,47.50
2018-04-27T13:21:58.213Z,46.80
2018-04-27T13:24:25.630Z,46.00
2018-04-27T13:26:53.270Z,46.00
2018-04-27T13:29:20.787Z,47.50
2018-04-27T13:31:49.067Z,46.10
2018-04-27T13:34:17.314Z,46.80
2018-04-27T13:36:44.785Z,46.80
2018-04-27T13:39:12.308Z,47.50
2018-04-27T13:41:39.782Z,48.20
2018-04-27T13:44:07.400Z,47.50
2018-04-27T13:46:34.928Z,47.30
2018-04-27T13:49:03.212Z,48.70
2018-04-27T13:51:31.546Z,46.50
2018-04-27T13:53:59.025Z,46.40
2018-04-27T13:56:27.300Z,46.50
2018-04-27T13:58:54.790Z,46.40
2018-04-27T14:01:22.299Z,48.00
2018-04-27T14:03:49.788Z,47.60
2018-04-27T14:06:18.075Z,47.40
2018-04-27T14:08:46.348Z,48.00
2018-04-27T14:11:14.673Z,47.30
2018-04-27T14:13:42.145Z,47.30
2018-04-27T14:16:09.663Z,47.10
2018-04-27T14:18:37.128Z,47.70
2018-04-27T14:21:04.639Z,48.90
2018-04-27T14:23:32.919Z,48.90
2018-04-27T14:26:01.224Z,47.70
2018-04-27T14:28:28.719Z,47.60
2018-04-27T14:30:56.214Z,48.50
2018-04-27T14:33:24.446Z,45.80
2018-04-27T14:35:51.964Z,45.80
2018-04-27T14:38:19.472Z,47.90
2018-04-27T14:40:46.992Z,48.30
2018-04-27T14:43:14.507Z,46.80
2018-04-27T14:45:42.040Z,45.60
2018-04-27T14:48:09.503Z,46.00
2018-04-27T14:50:37.043Z,47.00
2018-04-27T14:53:04.575Z,49.20
2018-04-27T14:55:32.089Z,45.90
2018-04-27T14:57:59.558Z,49.30
2018-04-27T15:00:27.820Z,45.60
2018-04-27T15:02:55.342Z,45.50
2018-04-27T15:05:22.875Z,47.50
2018-04-27T15:07:50.352Z,47.40
2018-04-27T15:10:17.880Z,49.30
2018-04-27T15:12:46.122Z,46.90
2018-04-27T15:15:14.404Z,46.80
2018-04-27T15:17:41.874Z,47.00
2018-04-27T15:20:10.161Z,47.00
2018-04-27T15:22:38.441Z,46.60
2018-04-27T15:25:06.674Z,48.20
2018-04-27T15:27:34.171Z,48.20
2018-04-27T15:30:02.472Z,46.80
2018-04-27T15:32:29.979Z,46.80
2018-04-27T15:34:57.500Z,48.40
2018-04-27T15:37:24.978Z,48.60
2018-04-27T15:39:52.437Z,47.20
2018-04-27T15:42:19.932Z,46.90
2018-04-27T15:44:48.178Z,46.50
2018-04-27T15:47:15.671Z,46.50
2018-04-27T15:49:43.147Z,48.80
2018-04-27T15:52:10.686Z,46.10
2018-04-27T15:54:38.155Z,47.70
2018-04-27T15:57:05.651Z,47.80
2018-04-27T15:59:33.359Z,47.80
2018-04-27T16:02:01.697Z,47.00
2018-04-27T16:04:29.187Z,47.10
2018-04-27T16:06:56.710Z,48.20
2018-04-27T16:09:24.271Z,47.10
2018-04-27T16:11:51.694Z,47.70
2018-04-27T16:14:19.183Z,47.40
2018-04-27T16:16:46.809Z,47.60
2018-04-27T16:19:14.345Z,47.50
2018-04-27T16:21:42.946Z,47.00
2018-04-27T16:24:10.463Z,47.00
2018-04-27T16:26:37.983Z,46.40
2018-04-27T16:29:05.516Z,46.00
2018-04-27T16:31:33.063Z,46.00
2018-04-27T16:34:01.360Z,47.80
2018-04-27T16:36:28.873Z,47.80
2018-04-27T16:38:56.367Z,48.60
2018-04-27T16:41:23.874Z,46.70
2018-04-27T16:43:51.419Z,46.90
2018-04-27T16:46:19.690Z,47.20
2018-04-27T16:48:47.169Z,47.20
2018-04-27T16:51:14.690Z,46.80
2018-04-27T16:53:42.231Z,47.70
2018-04-27T16:56:09.699Z,46.30
2018-04-27T16:58:37.227Z,47.50
2018-04-27T17:01:05.681Z,46.80
2018-04-27T17:03:33.294Z,46.70
2018-04-27T17:06:00.714Z,48.30
2018-04-27T17:08:29.008Z,47.90
2018-04-27T17:10:56.484Z,47.70
2018-04-27T17:13:23.989Z,48.60
2018-04-27T17:15:51.467Z,49.80
2018-04-27T17:18:19.769Z,50.20
2018-04-27T17:20:47.303Z,50.20
2018-04-27T17:23:15.538Z,50.50
2018-04-27T17:25:43.057Z,50.50
2018-04-27T17:28:10.538Z,51.00
2018-04-27T17:30:38.022Z,51.20
2018-04-27T17:33:05.558Z,51.00
2018-04-27T17:35:33.070Z,52.90
2018-04-27T17:38:01.312Z,52.00
2018-04-27T17:40:28.850Z,52.00
2018-04-27T17:42:56.354Z,53.00
2018-04-27T17:45:24.629Z,51.90
2018-04-27T17:47:52.910Z,52.40
2018-04-27T17:50:21.146Z,52.40
2018-04-27T17:52:48.616Z,52.40
2018-04-27T17:55:16.130Z,52.50
2018-04-27T17:57:43.629Z,51.60
2018-04-27T18:00:11.148Z,51.10
2018-04-27T18:02:38.648Z,52.10
2018-04-27T18:05:06.133Z,52.70
2018-04-27T18:07:34.447Z,52.70
2018-04-27T18:10:01.965Z,52.70
2018-04-27T18:12:30.227Z,54.70
2018-04-27T18:14:58.487Z,54.90
2018-04-27T18:17:26.002Z,54.90
2018-04-27T18:19:53.520Z,55.80
2018-04-27T18:22:21.800Z,56.80
2018-04-27T18:24:50.067Z,57.60
2018-04-27T18:27:17.558Z,57.50
2018-04-27T18:29:45.067Z,58.60
2018-04-27T18:32:12.539Z,58.80
2018-04-27T18:34:40.044Z,58.60
2018-04-27T18:37:07.555Z,58.70
2018-04-27T18:39:35.053Z,59.10
2018-04-27T18:42:02.523Z,60.30
2018-04-27T18:44:30.107Z,60.20
2018-04-27T18:46:58.333Z,61.40
2018-04-27T18:49:25.861Z,61.60
2018-04-27T18:51:53.338Z,61.50
2018-04-27T18:54:20.829Z,62.30
2018-04-27T18:56:48.356Z,62.30
2018-04-27T18:59:16.608Z,63.80
2018-04-27T19:01:44.139Z,63.90
2018-04-27T19:04:11.634Z,63.90
2018-04-27T19:06:39.915Z,68.40
2018-04-27T19:09:08.218Z,70.90
2018-04-27T19:11:35.809Z,70.90
2018-04-27T19:14:03.352Z,72.40
2018-04-27T19:16:31.631Z,74.20
2018-04-27T19:18:59.132Z,74.60
2018-04-27T19:21:27.443Z,74.80
2018-04-27T19:23:54.943Z,74.70
2018-04-27T19:26:22.456Z,73.80
2018-04-27T19:28:49.988Z,75.50
2018-04-27T19:31:18.301Z,76.40
2018-04-27T19:33:45.854Z,76.30
2018-04-27T19:36:13.322Z,77.60
2018-04-27T19:38:40.825Z,77.30
2018-04-27T19:41:08.357Z,79.40
2018-04-27T19:43:35.865Z,79.60
2018-04-27T19:46:04.154Z,81.40
2018-04-27T19:48:31.679Z,81.30
2018-04-27T19:50:59.214Z,81.70
2018-04-27T19:53:26.702Z,82.40
2018-04-27T19:55:54.971Z,81.50
2018-04-27T19:58:22.454Z,81.50
2018-04-27T20:00:49.951Z,83.50
2018-04-27T20:03:17.418Z,85.90
2018-04-27T20:05:46.875Z,86.20
2018-04-27T20:08:14.390Z,86.20
2018-04-27T20:10:44.889Z,87.30
2018-04-27T20:13:12.316Z,88.20
2018-04-27T20:15:40.614Z,88.90
2018-04-27T20:18:11.549Z,90.10
2018-04-27T20:20:39.092Z,90.20
2018-04-27T20:23:08.418Z,90.50
2018-04-27T20:25:35.906Z,90.50
2018-04-27T20:28:04.944Z,90.20
2018-04-27T20:30:32.434Z,89.80
2018-04-27T20:33:00.674Z,89.10
2018-04-27T20:35:28.163Z,89.10
2018-04-27T20:38:00.478Z,89.10
2018-04-27T20:40:29.525Z,88.90
2018-04-27T20:42:57.069Z,88.90
2018-04-27T20:45:24.551Z,89.70
2018-04-27T20:47:52.066Z,90.30
2018-04-27T20:50:26.172Z,90.70
2018-04-27T20:52:53.688Z,90.80
2018-04-27T20:55:21.184Z,91.10
2018-04-27T20:57:49.433Z,91.10
2018-04-27T21:00:17.665Z,91.10
2018-04-27T21:02:46.912Z,91.40
2018-04-27T21:05:14.408Z,91.40
2018-04-27T21:07:41.870Z,91.40
2018-04-27T21:10:09.366Z,91.50
2018-04-27T21:12:36.900Z,91.30
2018-04-27T21:15:13.775Z,91.30
2018-04-27T21:17:50.038Z,91.20
2018-04-27T21:20:20.946Z,90.90
2018-04-27T21:22:49.223Z,91.20
2018-04-27T21:28:18.555Z,91.40
2018-04-27T21:30:48.480Z,91.60
2018-04-27T21:33:15.979Z,91.50
2018-04-27T21:35:52.296Z,91.50
2018-04-27T21:38:35.419Z,91.60
2018-04-27T21:44:31.258Z,91.10
2018-04-27T21:47:07.411Z,91.10
2018-04-27T21:49:34.886Z,91.30
2018-04-27T21:52:03.146Z,90.90
2018-04-27T21:54:33.468Z,90.90
2018-04-27T22:00:03.657Z,90.90
2018-04-27T22:02:32.864Z,91.00
2018-04-27T22:05:14.938Z,91.00
2018-04-27T22:07:45.461Z,91.30
2018-04-27T22:10:12.951Z,91.10
2018-04-27T22:12:45.017Z,91.20
2018-04-27T22:15:12.494Z,91.10
2018-04-27T22:20:15.744Z,91.30
2018-04-27T22:22:43.244Z,91.30
2018-04-27T22:25:19.696Z,91.40
2018-04-27T22:27:48.044Z,91.40
2018-04-27T22:33:18.757Z,91.40
2018-04-27T22:36:02.655Z,91.70
2018-04-27T22:38:30.874Z,91.70
2018-04-27T22:40:59.224Z,92.10
2018-04-27T22:43:26.686Z,92.10
2018-04-27T22:46:07.653Z,92.20
2018-04-27T22:48:43.471Z,92.30
2018-04-27T22:51:15.482Z,92.20
2018-04-27T22:53:50.669Z,92.40
2018-04-27T22:59:29.774Z,92.30
2018-04-27T23:02:03.271Z,92.20
2018-04-27T23:04:30.765Z,92.20
2018-04-27T23:06:58.470Z,92.20
2018-04-27T23:09:26.858Z,92.30
2018-04-27T23:11:54.327Z,92.40
2018-04-27T23:14:38.538Z,93.10
2018-04-27T23:17:17.494Z,93.60
2018-04-27T23:19:54.830Z,93.50
2018-04-27T23:22:43.207Z,93.70
2018-04-27T23:25:27.282Z,93.60
2018-04-27T23:27:54.757Z,93.50
2018-04-27T23:30:24.847Z,93.60
2018-04-27T23:32:52.475Z,93.70
2018-04-27T23:35:20.770Z,93.80
2018-04-27T23:37:48.242Z,93.90
2018-04-27T23:40:15.740Z,93.80
2018-04-27T23:42:44.202Z,93.90
2018-04-27T23:45:14.103Z,94.20
2018-04-27T23:47:41.635Z,94.20
2018-04-27T23:50:10.040Z,94.00
2018-04-27T23:52:38.382Z,94.40
2018-04-27T23:55:05.925Z,94.40
2018-04-27T23:57:33.455Z,94.70
